sensor_id;sensor_type;location;lat;lon;timestamp;P1;durP1;ratioP1;P2;durP2;ratioP2
8938;SDS011;4504;48.810;9.172;2023-07-29T00:01:36;116.97;;;3.90;;
8938;SDS011;4504;48.810;9.172;2023-07-29T00:04:06;116.17;;;3.50;;
8938;SDS011;4504;48.810;9.172;2023-07-29T00:06:34;116.90;;;3.70;;
8938;SDS011;4504;48.810;9.172;2023-07-29T00:09:02;117.30;;;3.90;;
8938;SDS011;4504;48.810;9.172;2023-07-29T00:11:29;114.67;;;3.30;;
8938;SDS011;4504;48.810;9.172;2023-07-29T00:13:57;114.90;;;3.40;;
8938;SDS011;4504;48.810;9.172;2023-07-29T00:16:24;117.10;;;3.57;;
8938;SDS011;4504;48.810;9.172;2023-07-29T00:18:51;117.20;;;3.80;;
8938;SDS011;4504;48.810;9.172;2023-07-29T00:21:20;115.47;;;3.67;;
8938;SDS011;4504;48.810;9.172;2023-07-29T00:23:47;115.63;;;3.37;;
8938;SDS011;4504;48.810;9.172;2023-07-29T00:26:14;116.40;;;3.40;;
8938;SDS011;4504;48.810;9.172;2023-07-29T00:28:41;116.67;;;3.73;;
8938;SDS011;4504;48.810;9.172;2023-07-29T00:31:08;116.57;;;3.90;;
8938;SDS011;4504;48.810;9.172;2023-07-29T00:33:35;115.70;;;3.27;;
8938;SDS011;4504;48.810;9.172;2023-07-29T00:36:03;116.33;;;4.00;;
8938;SDS011;4504;48.810;9.172;2023-07-29T00:38:31;116.77;;;4.00;;
8938;SDS011;4504;48.810;9.172;2023-07-29T00:40:59;116.50;;;3.50;;
8938;SDS011;4504;48.810;9.172;2023-07-29T00:43:28;116.87;;;3.80;;
8938;SDS011;4504;48.810;9.172;2023-07-29T00:45:55;115.47;;;3.63;;
8938;SDS011;4504;48.810;9.172;2023-07-29T00:48:23;122.73;;;4.13;;
8938;SDS011;4504;48.810;9.172;2023-07-29T00:50:50;116.03;;;4.07;;
8938;SDS011;4504;48.810;9.172;2023-07-29T00:53:18;116.13;;;3.83;;
8938;SDS011;4504;48.810;9.172;2023-07-29T00:55:46;117.23;;;3.60;;
8938;SDS011;4504;48.810;9.172;2023-07-29T00:58:14;116.27;;;3.90;;
8938;SDS011;4504;48.810;9.172;2023-07-29T01:00:41;116.47;;;3.60;;
8938;SDS011;4504;48.810;9.172;2023-07-29T01:03:08;115.73;;;3.70;;
8938;SDS011;4504;48.810;9.172;2023-07-29T01:05:36;115.53;;;3.17;;
8938;SDS011;4504;48.810;9.172;2023-07-29T01:08:16;115.20;;;3.30;;
8938;SDS011;4504;48.810;9.172;2023-07-29T01:10:54;116.67;;;3.93;;
8938;SDS011;4504;48.810;9.172;2023-07-29T01:13:30;115.30;;;3.20;;
8938;SDS011;4504;48.810;9.172;2023-07-29T01:16:02;115.73;;;3.30;;
8938;SDS011;4504;48.810;9.172;2023-07-29T01:18:35;116.27;;;3.27;;
8938;SDS011;4504;48.810;9.172;2023-07-29T01:21:07;115.27;;;3.27;;
8938;SDS011;4504;48.810;9.172;2023-07-29T01:23:38;115.67;;;3.50;;
8938;SDS011;4504;48.810;9.172;2023-07-29T01:26:05;124.77;;;4.40;;
8938;SDS011;4504;48.810;9.172;2023-07-29T01:28:32;117.70;;;3.77;;
8938;SDS011;4504;48.810;9.172;2023-07-29T01:31:01;115.27;;;3.67;;
8938;SDS011;4504;48.810;9.172;2023-07-29T01:33:39;116.57;;;3.80;;
8938;SDS011;4504;48.810;9.172;2023-07-29T01:36:11;117.37;;;4.00;;
8938;SDS011;4504;48.810;9.172;2023-07-29T01:38:43;114.60;;;3.73;;
8938;SDS011;4504;48.810;9.172;2023-07-29T01:41:11;116.17;;;3.60;;
8938;SDS011;4504;48.810;9.172;2023-07-29T01:43:40;114.40;;;3.23;;
8938;SDS011;4504;48.810;9.172;2023-07-29T01:46:09;114.87;;;3.50;;
8938;SDS011;4504;48.810;9.172;2023-07-29T01:48:37;122.50;;;3.90;;
8938;SDS011;4504;48.810;9.172;2023-07-29T01:51:04;115.20;;;3.80;;
8938;SDS011;4504;48.810;9.172;2023-07-29T01:53:32;116.60;;;3.70;;
8938;SDS011;4504;48.810;9.172;2023-07-29T01:56:01;117.10;;;4.13;;
8938;SDS011;4504;48.810;9.172;2023-07-29T01:58:30;115.70;;;3.80;;
8938;SDS011;4504;48.810;9.172;2023-07-29T02:00:57;116.30;;;3.17;;
8938;SDS011;4504;48.810;9.172;2023-07-29T02:03:24;116.80;;;4.00;;
8938;SDS011;4504;48.810;9.172;2023-07-29T02:05:51;117.50;;;3.30;;
8938;SDS011;4504;48.810;9.172;2023-07-29T02:08:18;117.07;;;3.50;;
8938;SDS011;4504;48.810;9.172;2023-07-29T02:10:45;116.77;;;3.30;;
8938;SDS011;4504;48.810;9.172;2023-07-29T02:13:15;116.37;;;3.30;;
8938;SDS011;4504;48.810;9.172;2023-07-29T02:15:42;116.40;;;3.47;;
8938;SDS011;4504;48.810;9.172;2023-07-29T02:18:09;116.20;;;3.70;;
8938;SDS011;4504;48.810;9.172;2023-07-29T02:20:36;117.07;;;3.30;;
8938;SDS011;4504;48.810;9.172;2023-07-29T02:23:03;117.27;;;3.50;;
8938;SDS011;4504;48.810;9.172;2023-07-29T02:25:30;124.90;;;4.13;;
8938;SDS011;4504;48.810;9.172;2023-07-29T02:27:57;116.30;;;3.30;;
8938;SDS011;4504;48.810;9.172;2023-07-29T02:30:25;116.40;;;3.43;;
8938;SDS011;4504;48.810;9.172;2023-07-29T02:32:52;115.60;;;3.60;;
8938;SDS011;4504;48.810;9.172;2023-07-29T02:35:19;119.90;;;3.50;;
8938;SDS011;4504;48.810;9.172;2023-07-29T02:37:46;115.93;;;3.30;;
8938;SDS011;4504;48.810;9.172;2023-07-29T02:40:14;116.57;;;3.43;;
8938;SDS011;4504;48.810;9.172;2023-07-29T02:42:41;116.47;;;3.70;;
8938;SDS011;4504;48.810;9.172;2023-07-29T02:45:08;116.97;;;3.50;;
8938;SDS011;4504;48.810;9.172;2023-07-29T02:47:38;116.27;;;3.23;;
8938;SDS011;4504;48.810;9.172;2023-07-29T02:50:05;116.20;;;3.47;;
8938;SDS011;4504;48.810;9.172;2023-07-29T02:52:32;115.67;;;3.30;;
8938;SDS011;4504;48.810;9.172;2023-07-29T02:54:59;117.77;;;3.43;;
8938;SDS011;4504;48.810;9.172;2023-07-29T02:57:26;116.47;;;3.63;;
8938;SDS011;4504;48.810;9.172;2023-07-29T02:59:53;116.30;;;3.70;;
8938;SDS011;4504;48.810;9.172;2023-07-29T03:02:20;116.57;;;3.40;;
8938;SDS011;4504;48.810;9.172;2023-07-29T03:04:49;117.97;;;3.90;;
8938;SDS011;4504;48.810;9.172;2023-07-29T03:07:16;116.47;;;3.57;;
8938;SDS011;4504;48.810;9.172;2023-07-29T03:09:43;117.60;;;4.00;;
8938;SDS011;4504;48.810;9.172;2023-07-29T03:12:10;116.00;;;3.40;;
8938;SDS011;4504;48.810;9.172;2023-07-29T03:14:37;115.27;;;3.50;;
8938;SDS011;4504;48.810;9.172;2023-07-29T03:17:04;116.17;;;3.23;;
8938;SDS011;4504;48.810;9.172;2023-07-29T03:19:31;120.77;;;3.90;;
8938;SDS011;4504;48.810;9.172;2023-07-29T03:22:00;116.30;;;3.40;;
8938;SDS011;4504;48.810;9.172;2023-07-29T03:24:27;116.70;;;3.50;;
8938;SDS011;4504;48.810;9.172;2023-07-29T03:26:54;116.77;;;3.40;;
8938;SDS011;4504;48.810;9.172;2023-07-29T03:29:21;117.00;;;3.40;;
8938;SDS011;4504;48.810;9.172;2023-07-29T03:31:48;116.30;;;3.80;;
8938;SDS011;4504;48.810;9.172;2023-07-29T03:34:15;116.20;;;3.23;;
8938;SDS011;4504;48.810;9.172;2023-07-29T03:36:45;115.90;;;3.50;;
8938;SDS011;4504;48.810;9.172;2023-07-29T03:39:14;117.23;;;3.53;;
8938;SDS011;4504;48.810;9.172;2023-07-29T03:41:42;119.13;;;4.90;;
8938;SDS011;4504;48.810;9.172;2023-07-29T03:44:09;116.00;;;3.80;;
8938;SDS011;4504;48.810;9.172;2023-07-29T03:46:36;120.00;;;3.60;;
8938;SDS011;4504;48.810;9.172;2023-07-29T03:49:04;114.27;;;3.37;;
8938;SDS011;4504;48.810;9.172;2023-07-29T03:51:31;116.60;;;3.83;;
8938;SDS011;4504;48.810;9.172;2023-07-29T03:53:58;115.77;;;3.60;;
8938;SDS011;4504;48.810;9.172;2023-07-29T03:56:27;118.33;;;4.20;;
8938;SDS011;4504;48.810;9.172;2023-07-29T03:58:57;118.07;;;4.30;;
8938;SDS011;4504;48.810;9.172;2023-07-29T04:01:29;117.07;;;3.50;;
8938;SDS011;4504;48.810;9.172;2023-07-29T04:03:57;115.77;;;3.30;;
8938;SDS011;4504;48.810;9.172;2023-07-29T04:06:25;116.57;;;3.30;;
8938;SDS011;4504;48.810;9.172;2023-07-29T04:08:52;118.50;;;3.57;;
8938;SDS011;4504;48.810;9.172;2023-07-29T04:11:20;116.97;;;3.40;;
8938;SDS011;4504;48.810;9.172;2023-07-29T04:13:48;117.37;;;3.83;;
8938;SDS011;4504;48.810;9.172;2023-07-29T04:16:15;116.17;;;3.87;;
8938;SDS011;4504;48.810;9.172;2023-07-29T04:18:43;115.57;;;3.30;;
8938;SDS011;4504;48.810;9.172;2023-07-29T04:21:10;118.27;;;3.70;;
8938;SDS011;4504;48.810;9.172;2023-07-29T04:23:37;116.50;;;3.70;;
8938;SDS011;4504;48.810;9.172;2023-07-29T04:26:05;116.53;;;3.50;;
8938;SDS011;4504;48.810;9.172;2023-07-29T04:28:32;117.00;;;3.97;;
8938;SDS011;4504;48.810;9.172;2023-07-29T04:31:01;116.00;;;3.57;;
8938;SDS011;4504;48.810;9.172;2023-07-29T04:33:29;116.90;;;3.63;;
8938;SDS011;4504;48.810;9.172;2023-07-29T04:35:56;115.17;;;3.23;;
8938;SDS011;4504;48.810;9.172;2023-07-29T04:38:24;116.70;;;3.53;;
8938;SDS011;4504;48.810;9.172;2023-07-29T04:40:56;115.50;;;3.50;;
8938;SDS011;4504;48.810;9.172;2023-07-29T04:43:26;117.00;;;3.80;;
8938;SDS011;4504;48.810;9.172;2023-07-29T04:45:53;114.43;;;3.60;;
8938;SDS011;4504;48.810;9.172;2023-07-29T04:48:22;116.77;;;3.50;;
8938;SDS011;4504;48.810;9.172;2023-07-29T04:50:49;119.17;;;4.20;;
8938;SDS011;4504;48.810;9.172;2023-07-29T04:53:16;118.80;;;3.67;;
8938;SDS011;4504;48.810;9.172;2023-07-29T04:55:43;116.10;;;3.73;;
8938;SDS011;4504;48.810;9.172;2023-07-29T04:58:10;118.67;;;3.60;;
8938;SDS011;4504;48.810;9.172;2023-07-29T05:00:37;118.30;;;4.20;;
8938;SDS011;4504;48.810;9.172;2023-07-29T05:03:04;117.70;;;4.33;;
8938;SDS011;4504;48.810;9.172;2023-07-29T05:05:33;118.37;;;4.10;;
8938;SDS011;4504;48.810;9.172;2023-07-29T05:08:00;116.93;;;4.23;;
8938;SDS011;4504;48.810;9.172;2023-07-29T05:10:27;117.10;;;3.80;;
8938;SDS011;4504;48.810;9.172;2023-07-29T05:12:54;117.53;;;3.90;;
8938;SDS011;4504;48.810;9.172;2023-07-29T05:15:21;118.47;;;3.97;;
8938;SDS011;4504;48.810;9.172;2023-07-29T05:17:49;117.90;;;3.97;;
8938;SDS011;4504;48.810;9.172;2023-07-29T05:20:15;117.80;;;4.30;;
8938;SDS011;4504;48.810;9.172;2023-07-29T05:22:44;119.47;;;4.27;;
8938;SDS011;4504;48.810;9.172;2023-07-29T05:25:11;117.87;;;3.87;;
8938;SDS011;4504;48.810;9.172;2023-07-29T05:27:38;120.00;;;4.20;;
8938;SDS011;4504;48.810;9.172;2023-07-29T05:30:05;118.40;;;4.10;;
8938;SDS011;4504;48.810;9.172;2023-07-29T05:32:33;117.83;;;3.93;;
8938;SDS011;4504;48.810;9.172;2023-07-29T05:35:00;117.27;;;3.87;;
8938;SDS011;4504;48.810;9.172;2023-07-29T05:37:28;118.07;;;3.50;;
8938;SDS011;4504;48.810;9.172;2023-07-29T05:39:56;118.03;;;3.83;;
8938;SDS011;4504;48.810;9.172;2023-07-29T05:42:23;118.93;;;4.43;;
8938;SDS011;4504;48.810;9.172;2023-07-29T05:44:50;118.07;;;3.90;;
8938;SDS011;4504;48.810;9.172;2023-07-29T05:47:19;118.00;;;3.67;;
8938;SDS011;4504;48.810;9.172;2023-07-29T05:49:46;119.40;;;4.03;;
8938;SDS011;4504;48.810;9.172;2023-07-29T05:52:13;117.27;;;4.00;;
8938;SDS011;4504;48.810;9.172;2023-07-29T05:54:41;117.37;;;3.60;;
8938;SDS011;4504;48.810;9.172;2023-07-29T05:57:10;119.90;;;4.03;;
8938;SDS011;4504;48.810;9.172;2023-07-29T05:59:37;118.07;;;3.60;;
8938;SDS011;4504;48.810;9.172;2023-07-29T06:02:05;120.47;;;4.67;;
8938;SDS011;4504;48.810;9.172;2023-07-29T06:04:32;119.03;;;4.30;;
8938;SDS011;4504;48.810;9.172;2023-07-29T06:06:59;119.20;;;4.20;;
8938;SDS011;4504;48.810;9.172;2023-07-29T06:09:26;117.40;;;4.13;;
8938;SDS011;4504;48.810;9.172;2023-07-29T06:11:53;117.83;;;3.83;;
8938;SDS011;4504;48.810;9.172;2023-07-29T06:14:21;118.20;;;4.13;;
8938;SDS011;4504;48.810;9.172;2023-07-29T06:16:48;118.60;;;4.50;;
8938;SDS011;4504;48.810;9.172;2023-07-29T06:19:15;116.90;;;3.90;;
8938;SDS011;4504;48.810;9.172;2023-07-29T06:21:42;120.30;;;4.80;;
8938;SDS011;4504;48.810;9.172;2023-07-29T06:24:09;116.77;;;3.80;;
8938;SDS011;4504;48.810;9.172;2023-07-29T06:26:36;116.70;;;4.00;;
8938;SDS011;4504;48.810;9.172;2023-07-29T06:29:03;116.50;;;3.90;;
8938;SDS011;4504;48.810;9.172;2023-07-29T06:31:32;116.57;;;3.90;;
8938;SDS011;4504;48.810;9.172;2023-07-29T06:33:59;118.77;;;4.17;;
8938;SDS011;4504;48.810;9.172;2023-07-29T06:36:26;120.60;;;4.47;;
8938;SDS011;4504;48.810;9.172;2023-07-29T06:38:53;115.53;;;4.07;;
8938;SDS011;4504;48.810;9.172;2023-07-29T06:41:20;117.70;;;4.40;;
8938;SDS011;4504;48.810;9.172;2023-07-29T06:43:47;116.27;;;3.90;;
8938;SDS011;4504;48.810;9.172;2023-07-29T06:46:14;116.90;;;4.10;;
8938;SDS011;4504;48.810;9.172;2023-07-29T06:48:42;115.47;;;3.60;;
8938;SDS011;4504;48.810;9.172;2023-07-29T06:51:09;117.87;;;4.00;;
8938;SDS011;4504;48.810;9.172;2023-07-29T06:53:36;119.20;;;4.37;;
8938;SDS011;4504;48.810;9.172;2023-07-29T06:56:03;120.13;;;4.70;;
8938;SDS011;4504;48.810;9.172;2023-07-29T06:58:31;118.37;;;4.20;;
8938;SDS011;4504;48.810;9.172;2023-07-29T07:00:59;117.33;;;3.90;;
8938;SDS011;4504;48.810;9.172;2023-07-29T07:03:26;115.67;;;3.90;;
8938;SDS011;4504;48.810;9.172;2023-07-29T07:05:54;116.77;;;4.00;;
8938;SDS011;4504;48.810;9.172;2023-07-29T07:08:21;116.00;;;4.00;;
8938;SDS011;4504;48.810;9.172;2023-07-29T07:10:48;117.23;;;3.70;;
8938;SDS011;4504;48.810;9.172;2023-07-29T07:13:15;117.27;;;3.90;;
8938;SDS011;4504;48.810;9.172;2023-07-29T07:15:42;120.17;;;3.93;;
8938;SDS011;4504;48.810;9.172;2023-07-29T07:18:10;118.07;;;3.80;;
8938;SDS011;4504;48.810;9.172;2023-07-29T07:20:37;117.23;;;3.90;;
8938;SDS011;4504;48.810;9.172;2023-07-29T07:23:05;116.47;;;3.60;;
8938;SDS011;4504;48.810;9.172;2023-07-29T07:25:36;117.37;;;3.83;;
8938;SDS011;4504;48.810;9.172;2023-07-29T07:28:03;116.93;;;3.90;;
8938;SDS011;4504;48.810;9.172;2023-07-29T07:30:30;116.70;;;3.80;;
8938;SDS011;4504;48.810;9.172;2023-07-29T07:32:57;119.43;;;3.80;;
8938;SDS011;4504;48.810;9.172;2023-07-29T07:35:24;117.73;;;3.80;;
8938;SDS011;4504;48.810;9.172;2023-07-29T07:37:51;117.37;;;4.03;;
8938;SDS011;4504;48.810;9.172;2023-07-29T07:40:19;118.50;;;4.00;;
8938;SDS011;4504;48.810;9.172;2023-07-29T07:42:46;118.00;;;3.80;;
8938;SDS011;4504;48.810;9.172;2023-07-29T07:45:13;118.77;;;5.30;;
8938;SDS011;4504;48.810;9.172;2023-07-29T07:47:40;117.80;;;4.10;;
8938;SDS011;4504;48.810;9.172;2023-07-29T07:50:07;118.43;;;4.40;;
8938;SDS011;4504;48.810;9.172;2023-07-29T07:52:35;115.77;;;3.70;;
8938;SDS011;4504;48.810;9.172;2023-07-29T07:55:02;119.70;;;4.30;;
8938;SDS011;4504;48.810;9.172;2023-07-29T07:57:30;121.20;;;3.83;;
8938;SDS011;4504;48.810;9.172;2023-07-29T07:59:57;119.33;;;4.33;;
8938;SDS011;4504;48.810;9.172;2023-07-29T08:02:24;119.90;;;5.17;;
8938;SDS011;4504;48.810;9.172;2023-07-29T08:04:51;118.47;;;4.43;;
8938;SDS011;4504;48.810;9.172;2023-07-29T08:07:24;117.70;;;3.40;;
8938;SDS011;4504;48.810;9.172;2023-07-29T08:10:00;118.30;;;3.70;;
8938;SDS011;4504;48.810;9.172;2023-07-29T08:12:27;116.90;;;3.70;;
8938;SDS011;4504;48.810;9.172;2023-07-29T08:14:55;117.17;;;3.60;;
8938;SDS011;4504;48.810;9.172;2023-07-29T08:17:22;118.00;;;3.60;;
8938;SDS011;4504;48.810;9.172;2023-07-29T08:19:49;117.77;;;3.70;;
8938;SDS011;4504;48.810;9.172;2023-07-29T08:22:16;117.97;;;3.53;;
8938;SDS011;4504;48.810;9.172;2023-07-29T08:24:44;117.87;;;3.57;;
8938;SDS011;4504;48.810;9.172;2023-07-29T08:27:10;118.17;;;4.43;;
8938;SDS011;4504;48.810;9.172;2023-07-29T08:29:38;116.17;;;3.70;;
8938;SDS011;4504;48.810;9.172;2023-07-29T08:32:07;117.57;;;4.13;;
8938;SDS011;4504;48.810;9.172;2023-07-29T08:34:34;116.63;;;3.30;;
8938;SDS011;4504;48.810;9.172;2023-07-29T08:37:01;117.97;;;3.30;;
8938;SDS011;4504;48.810;9.172;2023-07-29T08:39:28;115.97;;;3.20;;
8938;SDS011;4504;48.810;9.172;2023-07-29T08:41:57;114.97;;;3.03;;
8938;SDS011;4504;48.810;9.172;2023-07-29T08:44:29;116.77;;;3.87;;
8938;SDS011;4504;48.810;9.172;2023-07-29T08:47:02;117.57;;;3.60;;
8938;SDS011;4504;48.810;9.172;2023-07-29T08:49:31;116.50;;;3.20;;
8938;SDS011;4504;48.810;9.172;2023-07-29T08:51:59;116.40;;;3.90;;
8938;SDS011;4504;48.810;9.172;2023-07-29T08:54:27;117.77;;;3.33;;
8938;SDS011;4504;48.810;9.172;2023-07-29T08:56:54;116.10;;;3.20;;
8938;SDS011;4504;48.810;9.172;2023-07-29T08:59:21;115.40;;;3.80;;
8938;SDS011;4504;48.810;9.172;2023-07-29T09:01:49;116.20;;;3.70;;
8938;SDS011;4504;48.810;9.172;2023-07-29T09:04:20;115.17;;;3.27;;
8938;SDS011;4504;48.810;9.172;2023-07-29T09:06:50;114.97;;;3.13;;
8938;SDS011;4504;48.810;9.172;2023-07-29T09:09:17;115.47;;;3.50;;
8938;SDS011;4504;48.810;9.172;2023-07-29T09:11:44;115.37;;;3.40;;
8938;SDS011;4504;48.810;9.172;2023-07-29T09:14:11;114.20;;;3.20;;
8938;SDS011;4504;48.810;9.172;2023-07-29T09:16:39;114.90;;;3.27;;
8938;SDS011;4504;48.810;9.172;2023-07-29T09:19:06;114.70;;;3.60;;
8938;SDS011;4504;48.810;9.172;2023-07-29T09:21:33;114.43;;;3.03;;
8938;SDS011;4504;48.810;9.172;2023-07-29T09:24:06;113.57;;;2.70;;
8938;SDS011;4504;48.810;9.172;2023-07-29T09:26:34;113.80;;;3.20;;
8938;SDS011;4504;48.810;9.172;2023-07-29T09:29:01;113.00;;;2.70;;
8938;SDS011;4504;48.810;9.172;2023-07-29T09:31:29;114.50;;;3.20;;
8938;SDS011;4504;48.810;9.172;2023-07-29T09:33:56;114.27;;;3.00;;
8938;SDS011;4504;48.810;9.172;2023-07-29T09:36:24;113.37;;;3.17;;
8938;SDS011;4504;48.810;9.172;2023-07-29T09:38:52;114.00;;;3.10;;
8938;SDS011;4504;48.810;9.172;2023-07-29T09:41:23;126.17;;;2.90;;
8938;SDS011;4504;48.810;9.172;2023-07-29T09:43:55;112.53;;;2.70;;
8938;SDS011;4504;48.810;9.172;2023-07-29T09:46:23;112.20;;;2.47;;
8938;SDS011;4504;48.810;9.172;2023-07-29T09:48:52;110.87;;;2.50;;
8938;SDS011;4504;48.810;9.172;2023-07-29T09:51:21;111.07;;;2.60;;
8938;SDS011;4504;48.810;9.172;2023-07-29T09:53:48;112.43;;;3.00;;
8938;SDS011;4504;48.810;9.172;2023-07-29T09:56:17;112.97;;;2.63;;
8938;SDS011;4504;48.810;9.172;2023-07-29T09:58:46;112.97;;;2.90;;
8938;SDS011;4504;48.810;9.172;2023-07-29T10:01:14;112.47;;;3.03;;
8938;SDS011;4504;48.810;9.172;2023-07-29T10:03:42;110.37;;;2.73;;
8938;SDS011;4504;48.810;9.172;2023-07-29T10:06:10;115.27;;;3.27;;
8938;SDS011;4504;48.810;9.172;2023-07-29T10:08:38;112.10;;;2.70;;
8938;SDS011;4504;48.810;9.172;2023-07-29T10:11:07;111.77;;;2.60;;
8938;SDS011;4504;48.810;9.172;2023-07-29T10:13:35;112.00;;;2.77;;
8938;SDS011;4504;48.810;9.172;2023-07-29T10:16:04;110.87;;;2.87;;
8938;SDS011;4504;48.810;9.172;2023-07-29T10:18:32;110.40;;;2.50;;
8938;SDS011;4504;48.810;9.172;2023-07-29T10:21:00;111.07;;;2.30;;
8938;SDS011;4504;48.810;9.172;2023-07-29T10:23:31;111.07;;;2.90;;
8938;SDS011;4504;48.810;9.172;2023-07-29T10:26:01;111.57;;;2.80;;
8938;SDS011;4504;48.810;9.172;2023-07-29T10:28:30;119.33;;;2.60;;
8938;SDS011;4504;48.810;9.172;2023-07-29T10:30:58;114.30;;;2.93;;
8938;SDS011;4504;48.810;9.172;2023-07-29T10:33:26;112.67;;;2.70;;
8938;SDS011;4504;48.810;9.172;2023-07-29T10:35:53;112.10;;;2.50;;
8938;SDS011;4504;48.810;9.172;2023-07-29T10:38:21;112.50;;;2.60;;
8938;SDS011;4504;48.810;9.172;2023-07-29T10:40:51;112.40;;;2.60;;
8938;SDS011;4504;48.810;9.172;2023-07-29T10:43:24;113.27;;;2.90;;
8938;SDS011;4504;48.810;9.172;2023-07-29T10:45:51;112.50;;;2.70;;
8938;SDS011;4504;48.810;9.172;2023-07-29T10:51:25;112.67;;;3.27;;
8938;SDS011;4504;48.810;9.172;2023-07-29T10:53:55;112.93;;;2.97;;
8938;SDS011;4504;48.810;9.172;2023-07-29T10:56:27;112.97;;;3.13;;
8938;SDS011;4504;48.810;9.172;2023-07-29T10:58:55;112.30;;;2.60;;
8938;SDS011;4504;48.810;9.172;2023-07-29T11:01:26;111.37;;;2.77;;
8938;SDS011;4504;48.810;9.172;2023-07-29T11:04:02;111.50;;;2.30;;
8938;SDS011;4504;48.810;9.172;2023-07-29T11:09:54;110.50;;;2.50;;
8938;SDS011;4504;48.810;9.172;2023-07-29T11:12:41;111.07;;;2.47;;
8938;SDS011;4504;48.810;9.172;2023-07-29T11:15:15;110.10;;;2.40;;
8938;SDS011;4504;48.810;9.172;2023-07-29T11:17:44;109.57;;;2.20;;
8938;SDS011;4504;48.810;9.172;2023-07-29T11:20:14;109.60;;;2.20;;
8938;SDS011;4504;48.810;9.172;2023-07-29T11:22:41;111.27;;;2.50;;
8938;SDS011;4504;48.810;9.172;2023-07-29T11:25:09;109.73;;;2.40;;
8938;SDS011;4504;48.810;9.172;2023-07-29T11:27:37;109.77;;;2.30;;
8938;SDS011;4504;48.810;9.172;2023-07-29T11:30:05;109.50;;;2.27;;
8938;SDS011;4504;48.810;9.172;2023-07-29T11:32:34;110.70;;;2.40;;
8938;SDS011;4504;48.810;9.172;2023-07-29T11:35:02;109.77;;;2.23;;
8938;SDS011;4504;48.810;9.172;2023-07-29T11:37:32;110.00;;;2.70;;
8938;SDS011;4504;48.810;9.172;2023-07-29T11:39:59;109.10;;;2.10;;
8938;SDS011;4504;48.810;9.172;2023-07-29T11:42:28;109.47;;;2.20;;
8938;SDS011;4504;48.810;9.172;2023-07-29T11:44:56;110.47;;;2.43;;
8938;SDS011;4504;48.810;9.172;2023-07-29T11:47:24;109.47;;;2.00;;
8938;SDS011;4504;48.810;9.172;2023-07-29T11:49:51;111.30;;;2.60;;
8938;SDS011;4504;48.810;9.172;2023-07-29T11:52:18;109.60;;;2.33;;
8938;SDS011;4504;48.810;9.172;2023-07-29T11:54:47;107.93;;;2.20;;
8938;SDS011;4504;48.810;9.172;2023-07-29T11:57:15;109.00;;;2.07;;
8938;SDS011;4504;48.810;9.172;2023-07-29T11:59:43;108.27;;;2.00;;
8938;SDS011;4504;48.810;9.172;2023-07-29T12:02:11;109.60;;;2.20;;
8938;SDS011;4504;48.810;9.172;2023-07-29T12:04:40;112.30;;;2.33;;
8938;SDS011;4504;48.810;9.172;2023-07-29T12:07:08;107.00;;;1.80;;
8938;SDS011;4504;48.810;9.172;2023-07-29T12:09:35;109.17;;;2.00;;
8938;SDS011;4504;48.810;9.172;2023-07-29T12:12:05;110.20;;;2.30;;
8938;SDS011;4504;48.810;9.172;2023-07-29T12:14:33;108.40;;;2.23;;
8938;SDS011;4504;48.810;9.172;2023-07-29T12:17:00;107.97;;;1.93;;
8938;SDS011;4504;48.810;9.172;2023-07-29T12:19:31;107.67;;;2.00;;
8938;SDS011;4504;48.810;9.172;2023-07-29T12:22:00;105.97;;;2.00;;
8938;SDS011;4504;48.810;9.172;2023-07-29T12:24:29;108.83;;;2.17;;
8938;SDS011;4504;48.810;9.172;2023-07-29T12:26:56;107.17;;;2.07;;
8938;SDS011;4504;48.810;9.172;2023-07-29T12:29:25;107.40;;;2.20;;
8938;SDS011;4504;48.810;9.172;2023-07-29T12:31:56;106.97;;;1.90;;
8938;SDS011;4504;48.810;9.172;2023-07-29T12:34:25;106.33;;;1.80;;
8938;SDS011;4504;48.810;9.172;2023-07-29T12:36:54;106.47;;;2.30;;
8938;SDS011;4504;48.810;9.172;2023-07-29T12:39:23;106.93;;;2.10;;
8938;SDS011;4504;48.810;9.172;2023-07-29T12:41:51;107.77;;;2.13;;
8938;SDS011;4504;48.810;9.172;2023-07-29T12:44:19;106.77;;;2.00;;
8938;SDS011;4504;48.810;9.172;2023-07-29T12:46:48;107.87;;;2.10;;
8938;SDS011;4504;48.810;9.172;2023-07-29T12:49:15;105.27;;;1.73;;
8938;SDS011;4504;48.810;9.172;2023-07-29T12:51:42;106.87;;;2.07;;
8938;SDS011;4504;48.810;9.172;2023-07-29T12:54:09;105.63;;;2.00;;
8938;SDS011;4504;48.810;9.172;2023-07-29T12:56:36;106.50;;;2.20;;
8938;SDS011;4504;48.810;9.172;2023-07-29T12:59:04;105.60;;;2.00;;
8938;SDS011;4504;48.810;9.172;2023-07-29T13:01:31;106.60;;;1.93;;
8938;SDS011;4504;48.810;9.172;2023-07-29T13:04:00;105.57;;;2.00;;
8938;SDS011;4504;48.810;9.172;2023-07-29T13:06:27;108.77;;;2.13;;
8938;SDS011;4504;48.810;9.172;2023-07-29T13:08:54;105.27;;;1.80;;
8938;SDS011;4504;48.810;9.172;2023-07-29T13:11:20;105.80;;;1.90;;
8938;SDS011;4504;48.810;9.172;2023-07-29T13:13:47;104.60;;;1.97;;
8938;SDS011;4504;48.810;9.172;2023-07-29T13:16:14;104.10;;;1.70;;
8938;SDS011;4504;48.810;9.172;2023-07-29T13:18:43;103.37;;;1.83;;
8938;SDS011;4504;48.810;9.172;2023-07-29T13:21:11;104.90;;;1.90;;
8938;SDS011;4504;48.810;9.172;2023-07-29T13:23:38;104.60;;;1.90;;
8938;SDS011;4504;48.810;9.172;2023-07-29T13:26:05;104.87;;;1.70;;
8938;SDS011;4504;48.810;9.172;2023-07-29T13:28:32;104.97;;;2.20;;
8938;SDS011;4504;48.810;9.172;2023-07-29T13:31:00;104.80;;;1.80;;
8938;SDS011;4504;48.810;9.172;2023-07-29T13:33:28;104.47;;;1.80;;
8938;SDS011;4504;48.810;9.172;2023-07-29T13:35:59;105.50;;;1.93;;
8938;SDS011;4504;48.810;9.172;2023-07-29T13:38:28;104.90;;;2.00;;
8938;SDS011;4504;48.810;9.172;2023-07-29T13:40:55;106.17;;;2.40;;
8938;SDS011;4504;48.810;9.172;2023-07-29T13:43:22;109.13;;;2.10;;
8938;SDS011;4504;48.810;9.172;2023-07-29T13:45:49;104.37;;;2.30;;
8938;SDS011;4504;48.810;9.172;2023-07-29T13:48:17;106.50;;;2.17;;
8938;SDS011;4504;48.810;9.172;2023-07-29T13:50:44;106.07;;;2.00;;
8938;SDS011;4504;48.810;9.172;2023-07-29T13:53:11;105.83;;;2.10;;
8938;SDS011;4504;48.810;9.172;2023-07-29T13:55:39;106.77;;;1.80;;
8938;SDS011;4504;48.810;9.172;2023-07-29T13:58:06;105.47;;;1.80;;
8938;SDS011;4504;48.810;9.172;2023-07-29T14:00:33;105.97;;;2.10;;
8938;SDS011;4504;48.810;9.172;2023-07-29T14:03:00;105.37;;;1.70;;
8938;SDS011;4504;48.810;9.172;2023-07-29T14:05:27;106.70;;;2.30;;
8938;SDS011;4504;48.810;9.172;2023-07-29T14:07:54;102.70;;;1.80;;
8938;SDS011;4504;48.810;9.172;2023-07-29T14:10:21;106.40;;;2.03;;
8938;SDS011;4504;48.810;9.172;2023-07-29T14:12:49;105.60;;;1.80;;
8938;SDS011;4504;48.810;9.172;2023-07-29T14:15:17;104.40;;;1.60;;
8938;SDS011;4504;48.810;9.172;2023-07-29T14:17:44;107.97;;;1.80;;
8938;SDS011;4504;48.810;9.172;2023-07-29T14:20:11;103.13;;;1.70;;
8938;SDS011;4504;48.810;9.172;2023-07-29T14:22:38;103.53;;;1.80;;
8938;SDS011;4504;48.810;9.172;2023-07-29T14:25:05;102.57;;;1.53;;
8938;SDS011;4504;48.810;9.172;2023-07-29T14:27:33;103.57;;;1.70;;
8938;SDS011;4504;48.810;9.172;2023-07-29T14:30:02;105.27;;;2.20;;
8938;SDS011;4504;48.810;9.172;2023-07-29T14:32:29;104.87;;;2.07;;
8938;SDS011;4504;48.810;9.172;2023-07-29T14:34:56;105.10;;;1.90;;
8938;SDS011;4504;48.810;9.172;2023-07-29T14:37:29;104.90;;;2.10;;
8938;SDS011;4504;48.810;9.172;2023-07-29T14:39:56;104.27;;;2.07;;
8938;SDS011;4504;48.810;9.172;2023-07-29T14:42:23;105.13;;;2.13;;
8938;SDS011;4504;48.810;9.172;2023-07-29T14:44:50;109.03;;;1.90;;
8938;SDS011;4504;48.810;9.172;2023-07-29T14:47:18;104.83;;;1.80;;
8938;SDS011;4504;48.810;9.172;2023-07-29T14:49:45;106.50;;;2.17;;
8938;SDS011;4504;48.810;9.172;2023-07-29T14:52:12;107.17;;;2.93;;
8938;SDS011;4504;48.810;9.172;2023-07-29T14:54:39;105.20;;;1.67;;
8938;SDS011;4504;48.810;9.172;2023-07-29T14:57:07;106.50;;;2.10;;
8938;SDS011;4504;48.810;9.172;2023-07-29T14:59:34;106.67;;;1.93;;